createdAt,value
2023-01-23T00:00:09.626Z,964.48
2023-01-23T00:00:19.897Z,964.48
2023-01-23T00:00:29.626Z,964.49
2023-01-23T00:00:39.627Z,964.49
2023-01-23T00:00:49.617Z,964.49
2023-01-23T00:00:59.633Z,964.50
2023-01-23T00:01:09.635Z,964.50
2023-01-23T00:01:19.636Z,964.50
2023-01-23T00:01:29.643Z,964.50
2023-01-23T00:01:39.637Z,964.51
2023-01-23T00:01:49.656Z,964.51
2023-01-23T00:01:59.639Z,964.51
2023-01-23T00:02:09.706Z,964.52
2023-01-23T00:02:19.690Z,964.52
2023-01-23T00:02:29.665Z,964.52
2023-01-23T00:02:39.689Z,964.52
2023-01-23T00:02:49.638Z,964.51
2023-01-23T00:02:59.642Z,964.51
2023-01-23T00:03:09.657Z,964.51
2023-01-23T00:03:19.643Z,964.50
2023-01-23T00:03:29.644Z,964.51
2023-01-23T00:03:39.677Z,964.51
2023-01-23T00:03:49.665Z,964.50
2023-01-23T00:03:59.727Z,964.50
2023-01-23T00:04:09.705Z,964.50
2023-01-23T00:04:19.707Z,964.50
2023-01-23T00:04:29.632Z,964.50
2023-01-23T00:04:39.648Z,964.50
2023-01-23T00:04:49.661Z,964.50
2023-01-23T00:04:59.650Z,964.50
2023-01-23T00:05:09.669Z,964.49
2023-01-23T00:05:19.655Z,964.49
2023-01-23T00:05:29.655Z,964.49
2023-01-23T00:05:39.666Z,964.50
2023-01-23T00:05:49.655Z,964.51
2023-01-23T00:05:59.658Z,964.51
2023-01-23T00:06:09.656Z,964.51
2023-01-23T00:06:19.657Z,964.50
2023-01-23T00:06:29.662Z,964.50
2023-01-23T00:06:39.660Z,964.50
2023-01-23T00:06:49.655Z,964.49
2023-01-23T00:06:59.659Z,964.49
2023-01-23T00:07:09.670Z,964.50
2023-01-23T00:07:19.660Z,964.50
2023-01-23T00:07:29.662Z,964.50
2023-01-23T00:07:39.664Z,964.50
2023-01-23T00:07:49.678Z,964.50
2023-01-23T00:07:59.671Z,964.50
2023-01-23T00:08:09.664Z,964.50
2023-01-23T00:08:19.648Z,964.50
2023-01-23T00:08:29.650Z,964.51
2023-01-23T00:08:39.667Z,964.51
2023-01-23T00:08:49.665Z,964.51
2023-01-23T00:08:59.667Z,964.50
2023-01-23T00:09:09.668Z,964.51
2023-01-23T00:09:19.670Z,964.51
2023-01-23T00:09:29.673Z,964.50
2023-01-23T00:09:39.676Z,964.51
2023-01-23T00:09:49.677Z,964.50
2023-01-23T00:09:59.683Z,964.50
2023-01-23T00:10:09.658Z,964.50
2023-01-23T00:10:19.898Z,964.49
2023-01-23T00:10:29.679Z,964.49
2023-01-23T00:10:39.679Z,964.49
2023-01-23T00:10:49.685Z,964.49
2023-01-23T00:10:59.683Z,964.49
2023-01-23T00:11:09.671Z,964.49
2023-01-23T00:11:19.691Z,964.49
2023-01-23T00:11:29.682Z,964.49
2023-01-23T00:11:39.666Z,964.49
2023-01-23T00:11:49.686Z,964.49
2023-01-23T00:11:59.687Z,964.49
2023-01-23T00:12:09.722Z,964.48
2023-01-23T00:12:19.691Z,964.48
2023-01-23T00:12:29.687Z,964.48
2023-01-23T00:12:39.692Z,964.48
2023-01-23T00:12:49.693Z,964.47
2023-01-23T00:12:59.786Z,964.47
2023-01-23T00:13:09.690Z,964.48
2023-01-23T00:13:19.694Z,964.48
2023-01-23T00:13:29.692Z,964.48
2023-01-23T00:13:39.693Z,964.47
2023-01-23T00:13:49.710Z,964.46
2023-01-23T00:13:59.699Z,964.46
2023-01-23T00:14:09.692Z,964.46
2023-01-23T00:14:19.702Z,964.47
2023-01-23T00:14:29.700Z,964.47
2023-01-23T00:14:39.697Z,964.46
2023-01-23T00:14:49.697Z,964.45
2023-01-23T00:14:59.699Z,964.45
2023-01-23T00:15:09.697Z,964.44
2023-01-23T00:15:19.695Z,964.44
2023-01-23T00:15:29.729Z,964.45
2023-01-23T00:15:39.728Z,964.45
2023-01-23T00:15:49.737Z,964.44
2023-01-23T00:15:59.784Z,964.44
2023-01-23T00:16:09.747Z,964.43
2023-01-23T00:16:19.708Z,964.44
2023-01-23T00:16:29.711Z,964.44
2023-01-23T00:16:39.696Z,964.44
2023-01-23T00:16:49.705Z,964.43
2023-01-23T00:16:59.704Z,964.43
2023-01-23T00:17:09.706Z,964.43
2023-01-23T00:17:19.711Z,964.44
2023-01-23T00:17:29.702Z,964.45
2023-01-23T00:17:39.707Z,964.45
2023-01-23T00:17:49.708Z,964.44
2023-01-23T00:17:59.708Z,964.45
2023-01-23T00:18:09.714Z,964.45
2023-01-23T00:18:19.708Z,964.46
2023-01-23T00:18:29.712Z,964.46
2023-01-23T00:18:39.715Z,964.46
2023-01-23T00:18:49.723Z,964.46
2023-01-23T00:18:59.716Z,964.47
2023-01-23T00:19:09.713Z,964.47
2023-01-23T00:19:19.714Z,964.47
2023-01-23T00:19:29.718Z,964.47
2023-01-23T00:19:39.715Z,964.48
2023-01-23T00:19:49.717Z,964.48
2023-01-23T00:19:59.717Z,964.48
2023-01-23T00:20:09.717Z,964.48
2023-01-23T00:20:20.084Z,964.48
2023-01-23T00:20:29.720Z,964.48
2023-01-23T00:20:39.726Z,964.48
2023-01-23T00:20:49.729Z,964.48
2023-01-23T00:20:59.723Z,964.48
2023-01-23T00:21:09.722Z,964.49
2023-01-23T00:21:19.730Z,964.49
2023-01-23T00:21:29.740Z,964.48
2023-01-23T00:21:39.737Z,964.48
2023-01-23T00:21:49.725Z,964.48
2023-01-23T00:21:59.716Z,964.48
2023-01-23T00:22:09.732Z,964.49
2023-01-23T00:22:19.726Z,964.50
2023-01-23T00:22:29.728Z,964.51
2023-01-23T00:22:39.726Z,964.51
2023-01-23T00:22:49.728Z,964.50
2023-01-23T00:22:59.733Z,964.51
2023-01-23T00:23:09.729Z,964.51
2023-01-23T00:23:19.729Z,964.51
2023-01-23T00:23:29.751Z,964.50
2023-01-23T00:23:39.732Z,964.50
2023-01-23T00:23:49.756Z,964.50
2023-01-23T00:23:59.788Z,964.50
2023-01-23T00:24:09.733Z,964.49
2023-01-23T00:24:19.735Z,964.49
2023-01-23T00:24:29.756Z,964.49
2023-01-23T00:24:39.746Z,964.49
2023-01-23T00:24:49.719Z,964.50
2023-01-23T00:24:59.745Z,964.50
2023-01-23T00:25:09.738Z,964.50
2023-01-23T00:25:19.738Z,964.49
2023-01-23T00:25:29.738Z,964.49
2023-01-23T00:25:39.747Z,964.49
2023-01-23T00:25:49.741Z,964.49
2023-01-23T00:25:59.744Z,964.49
2023-01-23T00:26:09.746Z,964.48
2023-01-23T00:26:19.759Z,964.49
2023-01-23T00:26:29.740Z,964.49
2023-01-23T00:26:39.726Z,964.49
2023-01-23T00:26:49.762Z,964.48
2023-01-23T00:26:59.729Z,964.47
2023-01-23T00:27:09.749Z,964.48
2023-01-23T00:27:19.751Z,964.47
2023-01-23T00:27:29.757Z,964.46
2023-01-23T00:27:39.747Z,964.46
2023-01-23T00:27:49.751Z,964.45
2023-01-23T00:27:59.752Z,964.44
2023-01-23T00:28:09.851Z,964.44
2023-01-23T00:28:19.754Z,964.44
2023-01-23T00:28:29.758Z,964.44
2023-01-23T00:28:39.757Z,964.43
2023-01-23T00:28:49.770Z,964.43
2023-01-23T00:28:59.761Z,964.42
2023-01-23T00:29:09.756Z,964.42
2023-01-23T00:29:19.754Z,964.42
2023-01-23T00:29:29.758Z,964.42
2023-01-23T00:29:39.759Z,964.42
2023-01-23T00:29:49.762Z,964.42
2023-01-23T00:29:59.757Z,964.41
2023-01-23T00:30:09.760Z,964.42
2023-01-23T00:30:19.980Z,964.42
2023-01-23T00:30:29.761Z,964.41
2023-01-23T00:30:39.801Z,964.42
2023-01-23T00:30:49.884Z,964.42
2023-01-23T00:30:59.848Z,964.42
2023-01-23T00:31:09.840Z,964.43
2023-01-23T00:31:19.842Z,964.43
2023-01-23T00:31:29.900Z,964.43
2023-01-23T00:31:39.955Z,964.44
2023-01-23T00:31:49.823Z,964.44
2023-01-23T00:31:59.864Z,964.44
2023-01-23T00:32:09.769Z,964.44
2023-01-23T00:32:19.780Z,964.44
2023-01-23T00:32:29.772Z,964.44
2023-01-23T00:32:39.777Z,964.44
2023-01-23T00:32:49.781Z,964.43
2023-01-23T00:32:59.778Z,964.43
2023-01-23T00:33:09.775Z,964.44
2023-01-23T00:33:19.776Z,964.44
2023-01-23T00:33:29.778Z,964.45
2023-01-23T00:33:39.776Z,964.44
2023-01-23T00:33:49.787Z,964.45
2023-01-23T00:33:59.791Z,964.45
2023-01-23T00:34:09.782Z,964.44
2023-01-23T00:34:19.784Z,964.44
2023-01-23T00:34:29.784Z,964.44
2023-01-23T00:34:39.786Z,964.45
2023-01-23T00:34:49.786Z,964.45
2023-01-23T00:34:59.786Z,964.46
2023-01-23T00:35:09.786Z,964.46
2023-01-23T00:35:19.810Z,964.47
2023-01-23T00:35:29.784Z,964.47
2023-01-23T00:35:39.788Z,964.48
2023-01-23T00:35:49.787Z,964.48
2023-01-23T00:35:59.820Z,964.48
2023-01-23T00:36:09.793Z,964.48
2023-01-23T00:36:19.794Z,964.49
2023-01-23T00:36:29.793Z,964.49
2023-01-23T00:36:39.804Z,964.49
2023-01-23T00:36:49.777Z,964.49
2023-01-23T00:36:59.778Z,964.49
2023-01-23T00:37:09.778Z,964.49
2023-01-23T00:37:19.802Z,964.50
2023-01-23T00:37:29.799Z,964.50
2023-01-23T00:37:39.815Z,964.51
2023-01-23T00:37:49.877Z,964.51
2023-01-23T00:37:59.840Z,964.51
2023-01-23T00:38:09.872Z,964.51
2023-01-23T00:38:19.860Z,964.51
2023-01-23T00:38:29.801Z,964.51
2023-01-23T00:38:39.800Z,964.52
2023-01-23T00:38:49.808Z,964.52
2023-01-23T00:38:59.803Z,964.52
2023-01-23T00:39:09.820Z,964.52
2023-01-23T00:39:19.811Z,964.51
2023-01-23T00:39:29.809Z,964.52
2023-01-23T00:39:39.808Z,964.52
2023-01-23T00:39:49.806Z,964.52
2023-01-23T00:39:59.806Z,964.51
2023-01-23T00:40:09.790Z,964.52
2023-01-23T00:40:20.091Z,964.52
2023-01-23T00:40:29.807Z,964.52
2023-01-23T00:40:39.816Z,964.53
2023-01-23T00:40:49.824Z,964.53
2023-01-23T00:40:59.813Z,964.53
2023-01-23T00:41:09.811Z,964.53
2023-01-23T00:41:19.813Z,964.54
2023-01-23T00:41:29.813Z,964.54
2023-01-23T00:41:39.819Z,964.55
2023-01-23T00:41:49.819Z,964.54
2023-01-23T00:41:59.839Z,964.55
2023-01-23T00:42:09.815Z,964.55
2023-01-23T00:42:19.822Z,964.56
2023-01-23T00:42:29.817Z,964.56
2023-01-23T00:42:39.819Z,964.56
2023-01-23T00:42:49.818Z,964.56
2023-01-23T00:42:59.827Z,964.56
2023-01-23T00:43:09.823Z,964.56
2023-01-23T00:43:19.919Z,964.56
2023-01-23T00:43:29.828Z,964.57
2023-01-23T00:43:39.824Z,964.57
2023-01-23T00:43:49.822Z,964.57
2023-01-23T00:43:59.825Z,964.57
2023-01-23T00:44:09.827Z,964.57
2023-01-23T00:44:19.825Z,964.58
2023-01-23T00:44:29.829Z,964.59
2023-01-23T00:44:39.827Z,964.59
2023-01-23T00:44:49.827Z,964.59
2023-01-23T00:44:59.829Z,964.59
2023-01-23T00:45:09.832Z,964.59
2023-01-23T00:45:19.830Z,964.60
2023-01-23T00:45:29.834Z,964.60
2023-01-23T00:45:39.834Z,964.60
2023-01-23T00:45:49.834Z,964.61
2023-01-23T00:45:59.838Z,964.62
2023-01-23T00:46:09.854Z,964.62
2023-01-23T00:46:19.914Z,964.62
2023-01-23T00:46:29.883Z,964.62
2023-01-23T00:46:39.861Z,964.62
2023-01-23T00:46:49.838Z,964.61
2023-01-23T00:46:59.840Z,964.62
2023-01-23T00:47:09.837Z,964.62
2023-01-23T00:47:19.853Z,964.62
2023-01-23T00:47:29.837Z,964.62
2023-01-23T00:47:39.839Z,964.62
2023-01-23T00:47:49.849Z,964.62
2023-01-23T00:47:59.850Z,964.62
2023-01-23T00:48:09.845Z,964.62
2023-01-23T00:48:19.853Z,964.62
2023-01-23T00:48:29.843Z,964.62
2023-01-23T00:48:39.844Z,964.62
2023-01-23T00:48:49.859Z,964.62
2023-01-23T00:48:59.846Z,964.62
2023-01-23T00:49:09.844Z,964.62
2023-01-23T00:49:19.832Z,964.62
2023-01-23T00:49:29.833Z,964.62
2023-01-23T00:49:39.846Z,964.62
2023-01-23T00:49:49.847Z,964.62
2023-01-23T00:49:59.851Z,964.62
2023-01-23T00:50:09.829Z,964.62
2023-01-23T00:50:20.181Z,964.62
2023-01-23T00:50:29.849Z,964.63
2023-01-23T00:50:39.851Z,964.62
2023-01-23T00:50:49.934Z,964.62
2023-01-23T00:50:59.940Z,964.61
2023-01-23T00:51:09.884Z,964.61
2023-01-23T00:51:19.911Z,964.62
2023-01-23T00:51:29.859Z,964.62
2023-01-23T00:51:39.857Z,964.61
2023-01-23T00:51:49.855Z,964.61
2023-01-23T00:51:59.839Z,964.62
2023-01-23T00:52:09.860Z,964.61
2023-01-23T00:52:19.877Z,964.61
2023-01-23T00:52:29.858Z,964.60
2023-01-23T00:52:39.861Z,964.59
2023-01-23T00:52:49.882Z,964.59
2023-01-23T00:52:59.861Z,964.60
2023-01-23T00:53:09.862Z,964.60
2023-01-23T00:53:19.842Z,964.61
2023-01-23T00:53:29.865Z,964.61
2023-01-23T00:53:39.871Z,964.62
2023-01-23T00:53:49.888Z,964.62
2023-01-23T00:53:59.880Z,964.62
2023-01-23T00:54:09.871Z,964.62
2023-01-23T00:54:19.875Z,964.62
2023-01-23T00:54:29.876Z,964.62
2023-01-23T00:54:39.855Z,964.62
2023-01-23T00:54:49.888Z,964.62
2023-01-23T00:54:59.856Z,964.62
2023-01-23T00:55:09.855Z,964.62
2023-01-23T00:55:19.870Z,964.61
2023-01-23T00:55:29.873Z,964.61
2023-01-23T00:55:39.875Z,964.61
2023-01-23T00:55:49.876Z,964.61
2023-01-23T00:55:59.886Z,964.61
2023-01-23T00:56:09.884Z,964.61
2023-01-23T00:56:19.875Z,964.62
2023-01-23T00:56:29.876Z,964.62
2023-01-23T00:56:39.879Z,964.61
2023-01-23T00:56:49.880Z,964.61
2023-01-23T00:56:59.882Z,964.62
2023-01-23T00:57:09.883Z,964.62
2023-01-23T00:57:19.917Z,964.63
2023-01-23T00:57:29.883Z,964.64
2023-01-23T00:57:39.881Z,964.65
2023-01-23T00:57:49.884Z,964.65
2023-01-23T00:57:59.885Z,964.65
2023-01-23T00:58:09.881Z,964.64
2023-01-23T00:58:19.882Z,964.64
2023-01-23T00:58:29.980Z,964.64
2023-01-23T00:58:39.890Z,964.64
2023-01-23T00:58:49.887Z,964.65
2023-01-23T00:58:59.887Z,964.64
2023-01-23T00:59:09.886Z,964.65
2023-01-23T00:59:19.888Z,964.64
2023-01-23T00:59:29.889Z,964.64
2023-01-23T00:59:39.892Z,964.63
2023-01-23T00:59:49.892Z,964.64
2023-01-23T00:59:59.888Z,964.64
2023-01-23T01:00:09.891Z,964.63
2023-01-23T01:00:20.276Z,964.63
2023-01-23T01:00:29.892Z,964.64
2023-01-23T01:00:39.895Z,964.63
2023-01-23T01:00:49.893Z,964.63
2023-01-23T01:00:59.895Z,964.62
2023-01-23T01:01:09.896Z,964.62
2023-01-23T01:01:19.914Z,964.64
2023-01-23T01:01:29.909Z,964.64
2023-01-23T01:01:39.925Z,964.64
2023-01-23T01:01:50.007Z,964.64
2023-01-23T01:01:59.981Z,964.65
2023-01-23T01:02:09.902Z,964.65
2023-01-23T01:02:19.890Z,964.65
2023-01-23T01:02:29.928Z,964.67
2023-01-23T01:02:39.914Z,964.68
2023-01-23T01:02:49.979Z,964.68
2023-01-23T01:02:59.910Z,964.68
2023-01-23T01:03:10.018Z,964.69
2023-01-23T01:03:19.915Z,964.69
2023-01-23T01:03:29.908Z,964.69
2023-01-23T01:03:39.904Z,964.68
2023-01-23T01:03:49.905Z,964.69
2023-01-23T01:03:59.919Z,964.69
2023-01-23T01:04:09.908Z,964.70
2023-01-23T01:04:19.922Z,964.69
2023-01-23T01:04:29.908Z,964.69
2023-01-23T01:04:39.911Z,964.69
2023-01-23T01:04:49.894Z,964.70
2023-01-23T01:04:59.913Z,964.71
2023-01-23T01:05:09.911Z,964.71
2023-01-23T01:05:19.912Z,964.70
2023-01-23T01:05:29.911Z,964.70
2023-01-23T01:05:39.914Z,964.70
2023-01-23T01:05:49.925Z,964.71
2023-01-23T01:05:59.913Z,964.71
2023-01-23T01:06:09.916Z,964.72
2023-01-23T01:06:19.897Z,964.71
2023-01-23T01:06:29.928Z,964.72
2023-01-23T01:06:39.927Z,964.72
2023-01-23T01:06:49.918Z,964.72
2023-01-23T01:06:59.918Z,964.72
2023-01-23T01:07:09.909Z,964.72
2023-01-23T01:07:19.918Z,964.72
2023-01-23T01:07:29.936Z,964.71
2023-01-23T01:07:39.920Z,964.71
2023-01-23T01:07:49.921Z,964.70
2023-01-23T01:07:59.922Z,964.70
2023-01-23T01:08:09.909Z,964.70
2023-01-23T01:08:19.920Z,964.69
2023-01-23T01:08:29.933Z,964.71
2023-01-23T01:08:39.922Z,964.72
2023-01-23T01:08:49.922Z,964.72
2023-01-23T01:08:59.931Z,964.72
2023-01-23T01:09:09.924Z,964.70
2023-01-23T01:09:19.932Z,964.71
2023-01-23T01:09:29.932Z,964.70
2023-01-23T01:09:39.930Z,964.70
2023-01-23T01:09:49.932Z,964.70
2023-01-23T01:09:59.933Z,964.70
2023-01-23T01:10:09.941Z,964.70
2023-01-23T01:10:20.266Z,964.70
2023-01-23T01:10:29.934Z,964.70
2023-01-23T01:10:39.933Z,964.69
2023-01-23T01:10:49.934Z,964.69
2023-01-23T01:10:59.936Z,964.69
2023-01-23T01:11:09.942Z,964.69
2023-01-23T01:11:19.937Z,964.69
2023-01-23T01:11:29.938Z,964.68
2023-01-23T01:11:39.941Z,964.67
2023-01-23T01:11:49.942Z,964.67
2023-01-23T01:11:59.950Z,964.68
2023-01-23T01:12:09.942Z,964.69
2023-01-23T01:12:19.942Z,964.69
2023-01-23T01:12:29.946Z,964.68
2023-01-23T01:12:39.962Z,964.66
2023-01-23T01:12:49.946Z,964.67
2023-01-23T01:12:59.955Z,964.68
2023-01-23T01:13:09.955Z,964.67
2023-01-23T01:13:19.949Z,964.68
2023-01-23T01:13:29.933Z,964.68
2023-01-23T01:13:40.051Z,964.68
2023-01-23T01:13:49.942Z,964.68
2023-01-23T01:13:59.952Z,964.68
2023-01-23T01:14:09.964Z,964.69
2023-01-23T01:14:19.954Z,964.69
2023-01-23T01:14:29.952Z,964.70
2023-01-23T01:14:39.957Z,964.70
2023-01-23T01:14:49.955Z,964.70
2023-01-23T01:14:59.955Z,964.70
2023-01-23T01:15:09.958Z,964.71
2023-01-23T01:15:19.959Z,964.72
2023-01-23T01:15:29.968Z,964.72
2023-01-23T01:15:39.959Z,964.71
2023-01-23T01:15:49.965Z,964.70
2023-01-23T01:15:59.975Z,964.70
2023-01-23T01:16:09.989Z,964.71
2023-01-23T01:16:20.068Z,964.72
2023-01-23T01:16:30.006Z,964.72
2023-01-23T01:16:39.963Z,964.73
2023-01-23T01:16:49.966Z,964.73
2023-01-23T01:16:59.969Z,964.73
2023-01-23T01:17:09.962Z,964.74
2023-01-23T01:17:19.965Z,964.75
2023-01-23T01:17:29.982Z,964.76
2023-01-23T01:17:39.967Z,964.76
2023-01-23T01:17:49.968Z,964.76
2023-01-23T01:17:59.964Z,964.77
2023-01-23T01:18:09.967Z,964.76
2023-01-23T01:18:19.977Z,964.76
2023-01-23T01:18:29.971Z,964.76
2023-01-23T01:18:39.968Z,964.75
2023-01-23T01:18:49.968Z,964.75
2023-01-23T01:18:59.973Z,964.76
2023-01-23T01:19:10.088Z,964.75
2023-01-23T01:19:19.978Z,964.75
2023-01-23T01:19:29.974Z,964.77
2023-01-23T01:19:39.973Z,964.77
2023-01-23T01:19:49.977Z,964.77
2023-01-23T01:19:59.973Z,964.77
2023-01-23T01:20:09.981Z,964.76
2023-01-23T01:20:20.209Z,964.76
2023-01-23T01:20:29.981Z,964.76
2023-01-23T01:20:39.984Z,964.77
2023-01-23T01:20:50.034Z,964.77
2023-01-23T01:20:59.982Z,964.77
2023-01-23T01:21:09.981Z,964.77
2023-01-23T01:21:19.990Z,964.77
2023-01-23T01:21:29.981Z,964.77
2023-01-23T01:21:39.964Z,964.77
2023-01-23T01:21:49.986Z,964.77
2023-01-23T01:21:59.967Z,964.77
2023-01-23T01:22:09.984Z,964.77
2023-01-23T01:22:19.984Z,964.78
2023-01-23T01:22:29.995Z,964.78
2023-01-23T01:22:39.985Z,964.77
2023-01-23T01:22:49.985Z,964.78
2023-01-23T01:22:59.987Z,964.78
2023-01-23T01:23:09.994Z,964.78
2023-01-23T01:23:19.987Z,964.79
2023-01-23T01:23:30.002Z,964.80
2023-01-23T01:23:39.996Z,964.79
2023-01-23T01:23:50.002Z,964.78
2023-01-23T01:23:59.985Z,964.78
2023-01-23T01:24:09.993Z,964.77
2023-01-23T01:24:19.995Z,964.79
2023-01-23T01:24:29.996Z,964.79
2023-01-23T01:24:39.995Z,964.81
2023-01-23T01:24:49.998Z,964.80
2023-01-23T01:24:59.997Z,964.80
2023-01-23T01:25:10.003Z,964.80
2023-01-23T01:25:20.004Z,964.80
2023-01-23T01:25:30.020Z,964.81
2023-01-23T01:25:40.013Z,964.83
2023-01-23T01:25:50.004Z,964.82
2023-01-23T01:26:00.010Z,964.83
2023-01-23T01:26:10.005Z,964.84
2023-01-23T01:26:20.012Z,964.83
2023-01-23T01:26:30.011Z,964.82
2023-01-23T01:26:40.007Z,964.81
2023-01-23T01:26:50.014Z,964.81
2023-01-23T01:27:00.035Z,964.82
2023-01-23T01:27:10.009Z,964.83
2023-01-23T01:27:20.014Z,964.82
2023-01-23T01:27:30.004Z,964.82
2023-01-23T01:27:40.009Z,964.83
2023-01-23T01:27:50.010Z,964.82
2023-01-23T01:28:00.011Z,964.82
2023-01-23T01:28:10.013Z,964.82
2023-01-23T01:28:20.000Z,964.83
2023-01-23T01:28:30.016Z,964.83
2023-01-23T01:28:40.013Z,964.83
2023-01-23T01:28:50.120Z,964.83
2023-01-23T01:29:00.017Z,964.83
2023-01-23T01:29:10.018Z,964.83
2023-01-23T01:29:20.013Z,964.85
2023-01-23T01:29:30.016Z,964.85
2023-01-23T01:29:40.028Z,964.84
2023-01-23T01:29:50.001Z,964.85
2023-01-23T01:30:00.032Z,964.85
2023-01-23T01:30:10.021Z,964.86
2023-01-23T01:30:20.287Z,964.86
2023-01-23T01:30:30.024Z,964.85
2023-01-23T01:30:40.146Z,964.85
2023-01-23T01:30:50.054Z,964.85
2023-01-23T01:31:00.133Z,964.85
2023-01-23T01:31:10.125Z,964.84
2023-01-23T01:31:20.152Z,964.84
2023-01-23T01:31:30.124Z,964.84
2023-01-23T01:31:40.148Z,964.84
2023-01-23T01:31:50.079Z,964.84
2023-01-23T01:32:00.061Z,964.83
2023-01-23T01:32:10.027Z,964.84
2023-01-23T01:32:20.033Z,964.83
2023-01-23T01:32:30.040Z,964.82
2023-01-23T01:32:40.031Z,964.83
2023-01-23T01:32:50.032Z,964.81
2023-01-23T01:33:00.032Z,964.80
2023-01-23T01:33:10.034Z,964.83
2023-01-23T01:33:20.036Z,964.83
2023-01-23T01:33:30.035Z,964.82
2023-01-23T01:33:40.035Z,964.81
2023-01-23T01:33:50.044Z,964.81
2023-01-23T01:34:00.048Z,964.81
2023-01-23T01:34:10.039Z,964.81
2023-01-23T01:34:21.565Z,964.80
2023-01-23T01:34:30.041Z,964.79
2023-01-23T01:34:40.037Z,964.80
2023-01-23T01:34:50.040Z,964.79
2023-01-23T01:35:00.046Z,964.78
2023-01-23T01:35:10.049Z,964.78
2023-01-23T01:35:20.044Z,964.77
2023-01-23T01:35:30.043Z,964.77
2023-01-23T01:35:40.046Z,964.78
2023-01-23T01:35:50.046Z,964.77
2023-01-23T01:36:00.043Z,964.76
2023-01-23T01:36:10.057Z,964.75
2023-01-23T01:36:20.047Z,964.75
2023-01-23T01:36:30.053Z,964.75
2023-01-23T01:36:40.051Z,964.75
2023-01-23T01:36:50.049Z,964.76
2023-01-23T01:37:00.050Z,964.77
2023-01-23T01:37:10.053Z,964.78
2023-01-23T01:37:20.051Z,964.77
2023-01-23T01:37:30.063Z,964.77
2023-01-23T01:37:40.054Z,964.77
2023-01-23T01:37:50.054Z,964.76
2023-01-23T01:38:00.060Z,964.77
2023-01-23T01:38:10.058Z,964.77
2023-01-23T01:38:20.064Z,964.77
2023-01-23T01:38:30.060Z,964.80
2023-01-23T01:38:40.058Z,964.80
2023-01-23T01:38:50.062Z,964.79
2023-01-23T01:39:00.060Z,964.79
2023-01-23T01:39:10.061Z,964.80
2023-01-23T01:39:20.064Z,964.81
2023-01-23T01:39:30.061Z,964.81
2023-01-23T01:39:40.062Z,964.82
2023-01-23T01:39:50.065Z,964.81
2023-01-23T01:40:00.066Z,964.82
2023-01-23T01:40:10.062Z,964.83
2023-01-23T01:40:20.349Z,964.82
2023-01-23T01:40:30.070Z,964.82
2023-01-23T01:40:40.067Z,964.83
2023-01-23T01:40:50.070Z,964.83
2023-01-23T01:41:00.093Z,964.84
2023-01-23T01:41:10.078Z,964.84
2023-01-23T01:41:20.074Z,964.84
2023-01-23T01:41:30.067Z,964.85
2023-01-23T01:41:40.070Z,964.85
2023-01-23T01:41:50.070Z,964.85
2023-01-23T01:42:00.091Z,964.86
2023-01-23T01:42:10.077Z,964.86
2023-01-23T01:42:20.058Z,964.85
2023-01-23T01:42:30.111Z,964.86
2023-01-23T01:42:40.073Z,964.85
2023-01-23T01:42:50.079Z,964.86
2023-01-23T01:43:00.115Z,964.86
2023-01-23T01:43:10.084Z,964.86
2023-01-23T01:43:20.080Z,964.86
2023-01-23T01:43:30.079Z,964.87
2023-01-23T01:43:40.082Z,964.88
2023-01-23T01:43:50.083Z,964.88
2023-01-23T01:44:00.199Z,964.87
2023-01-23T01:44:10.065Z,964.86
2023-01-23T01:44:20.092Z,964.87
2023-01-23T01:44:30.083Z,964.88
2023-01-23T01:44:40.083Z,964.89
2023-01-23T01:44:50.085Z,964.89
2023-01-23T01:45:00.114Z,964.88
2023-01-23T01:45:10.090Z,964.88
2023-01-23T01:45:20.089Z,964.88
2023-01-23T01:45:30.089Z,964.89
2023-01-23T01:45:40.086Z,964.90
2023-01-23T01:45:50.091Z,964.89
2023-01-23T01:46:00.137Z,964.89
2023-01-23T01:46:10.221Z,964.89
2023-01-23T01:46:20.139Z,964.88
2023-01-23T01:46:30.141Z,964.89
2023-01-23T01:46:40.176Z,964.90
2023-01-23T01:46:50.155Z,964.90
2023-01-23T01:47:00.095Z,964.91
2023-01-23T01:47:10.103Z,964.91
2023-01-23T01:47:20.094Z,964.92
2023-01-23T01:47:30.096Z,964.92
2023-01-23T01:47:40.101Z,964.94
2023-01-23T01:47:50.101Z,964.93
2023-01-23T01:48:00.119Z,964.92
2023-01-23T01:48:10.102Z,964.92
2023-01-23T01:48:20.100Z,964.92
2023-01-23T01:48:30.101Z,964.92
2023-01-23T01:48:40.103Z,964.92
2023-01-23T01:48:50.102Z,964.92
2023-01-23T01:49:00.119Z,964.93
2023-01-23T01:49:10.111Z,964.93
2023-01-23T01:49:20.110Z,964.93
2023-01-23T01:49:30.118Z,964.91
2023-01-23T01:49:40.106Z,964.91
2023-01-23T01:49:50.107Z,964.92
2023-01-23T01:50:00.125Z,964.91
2023-01-23T01:50:12.253Z,964.93
2023-01-23T01:50:20.452Z,964.95
2023-01-23T01:50:30.114Z,964.95
2023-01-23T01:50:40.108Z,964.94
2023-01-23T01:50:50.170Z,964.94
2023-01-23T01:51:00.146Z,964.94
2023-01-23T01:51:10.204Z,964.95
2023-01-23T01:51:20.226Z,964.95
2023-01-23T01:51:30.117Z,964.95
2023-01-23T01:51:40.115Z,964.94
2023-01-23T01:51:50.125Z,964.96
2023-01-23T01:52:00.128Z,964.97
2023-01-23T01:52:10.116Z,964.98
2023-01-23T01:52:20.126Z,964.99
2023-01-23T01:52:30.121Z,964.98
2023-01-23T01:52:40.116Z,964.99
2023-01-23T01:52:50.119Z,964.99
2023-01-23T01:53:00.121Z,964.99
2023-01-23T01:53:10.121Z,964.99
2023-01-23T01:53:20.123Z,964.98
2023-01-23T01:53:30.123Z,964.99
2023-01-23T01:53:40.124Z,964.99
2023-01-23T01:53:50.124Z,965.00
2023-01-23T01:54:00.144Z,965.00
2023-01-23T01:54:10.132Z,965.00
2023-01-23T01:54:20.131Z,964.99
2023-01-23T01:54:30.131Z,965.00
2023-01-23T01:54:40.129Z,965.01
2023-01-23T01:54:50.126Z,965.01
2023-01-23T01:55:00.144Z,965.01
2023-01-23T01:55:10.126Z,965.01
2023-01-23T01:55:20.136Z,965.02
2023-01-23T01:55:30.156Z,965.03
2023-01-23T01:55:40.130Z,965.04
2023-01-23T01:55:50.132Z,965.03
2023-01-23T01:56:00.122Z,965.03
2023-01-23T01:56:10.146Z,965.04
2023-01-23T01:56:20.136Z,965.05
2023-01-23T01:56:30.138Z,965.05
2023-01-23T01:56:40.133Z,965.05
2023-01-23T01:56:50.134Z,965.04
2023-01-23T01:57:00.136Z,965.04
2023-01-23T01:57:10.134Z,965.06
2023-01-23T01:57:20.154Z,965.06
2023-01-23T01:57:30.139Z,965.07
2023-01-23T01:57:40.174Z,965.08
2023-01-23T01:57:50.144Z,965.08
2023-01-23T01:58:00.136Z,965.09
2023-01-23T01:58:10.136Z,965.10
2023-01-23T01:58:20.136Z,965.10
2023-01-23T01:58:30.146Z,965.10
2023-01-23T01:58:40.155Z,965.10
2023-01-23T01:58:50.140Z,965.11
2023-01-23T01:59:00.139Z,965.11
2023-01-23T01:59:10.237Z,965.11
2023-01-23T01:59:20.144Z,965.11
2023-01-23T01:59:30.146Z,965.11
2023-01-23T01:59:40.150Z,965.11
2023-01-23T01:59:50.149Z,965.11
2023-01-23T02:00:00.163Z,965.11
2023-01-23T02:00:10.163Z,965.12
2023-01-23T02:00:20.473Z,965.13
2023-01-23T02:00:30.178Z,965.13
2023-01-23T02:00:40.184Z,965.13
2023-01-23T02:00:50.167Z,965.13
2023-01-23T02:01:00.266Z,965.14
2023-01-23T02:01:10.149Z,965.14
2023-01-23T02:01:20.152Z,965.13
2023-01-23T02:01:30.157Z,965.12
2023-01-23T02:01:40.216Z,965.12
2023-01-23T02:01:50.216Z,965.12
2023-01-23T02:02:00.209Z,965.12
2023-01-23T02:02:10.221Z,965.13
2023-01-23T02:02:20.210Z,965.13
2023-01-23T02:02:30.158Z,965.13
2023-01-23T02:02:40.159Z,965.13
2023-01-23T02:02:50.164Z,965.14
2023-01-23T02:03:00.164Z,965.15
2023-01-23T02:03:10.164Z,965.15
2023-01-23T02:03:20.164Z,965.15
2023-01-23T02:03:30.147Z,965.15
2023-01-23T02:03:40.165Z,965.15
2023-01-23T02:03:50.167Z,965.15
2023-01-23T02:04:00.167Z,965.17
2023-01-23T02:04:10.173Z,965.16
2023-01-23T02:04:20.165Z,965.17
2023-01-23T02:04:30.169Z,965.17
2023-01-23T02:04:40.168Z,965.17
2023-01-23T02:04:50.170Z,965.17